sensor_id;sensor_type;location;lat;lon;timestamp;temperature;humidity
21616;DHT22;10970;48.714;9.584;2022-07-22T00:00:04;17.50;99.90
21616;DHT22;10970;48.714;9.584;2022-07-22T00:12:14;17.40;99.90
21616;DHT22;10970;48.714;9.584;2022-07-22T00:21:58;17.30;99.90
21616;DHT22;10970;48.714;9.584;2022-07-22T00:29:15;17.30;99.90
21616;DHT22;10970;48.714;9.584;2022-07-22T00:34:10;17.30;99.90
21616;DHT22;10970;48.714;9.584;2022-07-22T00:39:02;17.30;99.90
21616;DHT22;10970;48.714;9.584;2022-07-22T00:43:59;17.20;99.90
21616;DHT22;10970;48.714;9.584;2022-07-22T00:48:53;17.20;99.90
21616;DHT22;10970;48.714;9.584;2022-07-22T00:51:19;17.10;99.90
21616;DHT22;10970;48.714;9.584;2022-07-22T00:53:46;17.00;99.90
21616;DHT22;10970;48.714;9.584;2022-07-22T00:56:12;17.10;99.90
21616;DHT22;10970;48.714;9.584;2022-07-22T00:58:38;17.00;99.90
21616;DHT22;10970;48.714;9.584;2022-07-22T01:01:04;16.90;99.90
21616;DHT22;10970;48.714;9.584;2022-07-22T01:03:30;16.90;99.90
21616;DHT22;10970;48.714;9.584;2022-07-22T01:05:56;16.80;99.90
21616;DHT22;10970;48.714;9.584;2022-07-22T01:08:25;16.80;99.90
21616;DHT22;10970;48.714;9.584;2022-07-22T01:10:51;16.80;99.90
21616;DHT22;10970;48.714;9.584;2022-07-22T01:13:17;16.80;99.90
21616;DHT22;10970;48.714;9.584;2022-07-22T01:15:42;16.80;99.90
21616;DHT22;10970;48.714;9.584;2022-07-22T01:18:08;16.80;99.90
21616;DHT22;10970;48.714;9.584;2022-07-22T01:20:35;16.80;99.90
21616;DHT22;10970;48.714;9.584;2022-07-22T01:23:00;16.70;99.90
21616;DHT22;10970;48.714;9.584;2022-07-22T01:25:26;16.70;99.90
21616;DHT22;10970;48.714;9.584;2022-07-22T01:27:52;16.70;99.90
21616;DHT22;10970;48.714;9.584;2022-07-22T01:30:17;16.70;99.90
21616;DHT22;10970;48.714;9.584;2022-07-22T01:32:43;16.70;99.90
21616;DHT22;10970;48.714;9.584;2022-07-22T01:35:09;16.70;99.90
21616;DHT22;10970;48.714;9.584;2022-07-22T01:37:34;16.60;99.90
21616;DHT22;10970;48.714;9.584;2022-07-22T01:40:00;16.60;99.90
21616;DHT22;10970;48.714;9.584;2022-07-22T01:42:26;16.60;99.90
21616;DHT22;10970;48.714;9.584;2022-07-22T01:44:52;16.60;99.90
21616;DHT22;10970;48.714;9.584;2022-07-22T01:47:18;16.60;99.90
21616;DHT22;10970;48.714;9.584;2022-07-22T01:49:43;16.60;99.90
21616;DHT22;10970;48.714;9.584;2022-07-22T01:52:09;16.60;99.90
21616;DHT22;10970;48.714;9.584;2022-07-22T01:54:35;16.60;99.90
21616;DHT22;10970;48.714;9.584;2022-07-22T01:57:01;16.60;99.90
21616;DHT22;10970;48.714;9.584;2022-07-22T01:59:27;16.50;99.90
21616;DHT22;10970;48.714;9.584;2022-07-22T02:01:52;16.50;99.90
21616;DHT22;10970;48.714;9.584;2022-07-22T02:04:18;16.40;99.90
21616;DHT22;10970;48.714;9.584;2022-07-22T02:06:44;16.30;99.90
21616;DHT22;10970;48.714;9.584;2022-07-22T02:09:10;16.30;99.90
21616;DHT22;10970;48.714;9.584;2022-07-22T02:11:35;16.30;99.90
21616;DHT22;10970;48.714;9.584;2022-07-22T02:14:01;16.20;99.90
21616;DHT22;10970;48.714;9.584;2022-07-22T02:16:27;16.20;99.90
21616;DHT22;10970;48.714;9.584;2022-07-22T02:18:53;16.10;99.90
21616;DHT22;10970;48.714;9.584;2022-07-22T02:21:19;16.10;99.90
21616;DHT22;10970;48.714;9.584;2022-07-22T02:23:45;16.20;99.90
21616;DHT22;10970;48.714;9.584;2022-07-22T02:26:11;16.20;99.90
21616;DHT22;10970;48.714;9.584;2022-07-22T02:28:36;16.10;99.90
21616;DHT22;10970;48.714;9.584;2022-07-22T02:31:02;16.20;99.90
21616;DHT22;10970;48.714;9.584;2022-07-22T02:33:28;16.10;99.90
21616;DHT22;10970;48.714;9.584;2022-07-22T02:35:55;16.10;99.90
21616;DHT22;10970;48.714;9.584;2022-07-22T02:38:21;16.10;99.90
21616;DHT22;10970;48.714;9.584;2022-07-22T02:40:47;16.00;99.90
21616;DHT22;10970;48.714;9.584;2022-07-22T02:43:13;16.10;99.90
21616;DHT22;10970;48.714;9.584;2022-07-22T02:45:38;16.10;99.90
21616;DHT22;10970;48.714;9.584;2022-07-22T02:48:04;16.00;99.90
21616;DHT22;10970;48.714;9.584;2022-07-22T02:50:30;16.00;99.90
21616;DHT22;10970;48.714;9.584;2022-07-22T02:52:58;16.00;99.90
21616;DHT22;10970;48.714;9.584;2022-07-22T02:55:24;16.00;99.90
21616;DHT22;10970;48.714;9.584;2022-07-22T02:57:50;15.90;99.90
21616;DHT22;10970;48.714;9.584;2022-07-22T03:00:16;16.00;99.90
21616;DHT22;10970;48.714;9.584;2022-07-22T03:02:42;15.90;99.90
21616;DHT22;10970;48.714;9.584;2022-07-22T03:05:08;15.90;99.90
21616;DHT22;10970;48.714;9.584;2022-07-22T03:07:34;15.90;99.90
21616;DHT22;10970;48.714;9.584;2022-07-22T03:10:00;15.90;99.90
21616;DHT22;10970;48.714;9.584;2022-07-22T03:12:25;15.90;99.90
21616;DHT22;10970;48.714;9.584;2022-07-22T03:14:51;15.80;99.90
21616;DHT22;10970;48.714;9.584;2022-07-22T03:17:17;15.80;99.90
21616;DHT22;10970;48.714;9.584;2022-07-22T03:19:42;15.80;99.90
21616;DHT22;10970;48.714;9.584;2022-07-22T03:22:08;15.70;99.90
21616;DHT22;10970;48.714;9.584;2022-07-22T03:24:34;15.70;99.90
21616;DHT22;10970;48.714;9.584;2022-07-22T03:26:59;15.70;99.90
21616;DHT22;10970;48.714;9.584;2022-07-22T03:29:25;15.70;99.90
21616;DHT22;10970;48.714;9.584;2022-07-22T03:31:51;15.70;99.90
21616;DHT22;10970;48.714;9.584;2022-07-22T03:34:16;15.60;99.90
21616;DHT22;10970;48.714;9.584;2022-07-22T03:36:42;15.70;99.90
21616;DHT22;10970;48.714;9.584;2022-07-22T03:39:08;15.70;99.90
21616;DHT22;10970;48.714;9.584;2022-07-22T03:41:33;15.70;99.90
21616;DHT22;10970;48.714;9.584;2022-07-22T03:43:59;15.70;99.90
21616;DHT22;10970;48.714;9.584;2022-07-22T03:46:24;15.60;99.90
21616;DHT22;10970;48.714;9.584;2022-07-22T03:48:50;15.60;99.90
21616;DHT22;10970;48.714;9.584;2022-07-22T03:51:16;15.60;99.90
21616;DHT22;10970;48.714;9.584;2022-07-22T03:53:41;15.60;99.90
21616;DHT22;10970;48.714;9.584;2022-07-22T03:56:08;15.60;99.90
21616;DHT22;10970;48.714;9.584;2022-07-22T03:58:33;15.60;99.90
21616;DHT22;10970;48.714;9.584;2022-07-22T04:00:59;15.60;99.90
21616;DHT22;10970;48.714;9.584;2022-07-22T04:03:25;15.70;99.90
21616;DHT22;10970;48.714;9.584;2022-07-22T04:05:50;15.60;99.90
21616;DHT22;10970;48.714;9.584;2022-07-22T04:08:17;15.70;99.90
21616;DHT22;10970;48.714;9.584;2022-07-22T04:10:44;15.70;99.90
21616;DHT22;10970;48.714;9.584;2022-07-22T04:13:09;15.70;99.90
21616;DHT22;10970;48.714;9.584;2022-07-22T04:15:35;15.60;99.90
21616;DHT22;10970;48.714;9.584;2022-07-22T04:18:01;15.70;99.90
21616;DHT22;10970;48.714;9.584;2022-07-22T04:20:27;15.70;99.90
21616;DHT22;10970;48.714;9.584;2022-07-22T04:22:52;15.70;99.90
21616;DHT22;10970;48.714;9.584;2022-07-22T04:25:18;15.70;99.90
21616;DHT22;10970;48.714;9.584;2022-07-22T04:27:44;15.70;99.90
21616;DHT22;10970;48.714;9.584;2022-07-22T04:30:10;15.70;99.90
21616;DHT22;10970;48.714;9.584;2022-07-22T04:32:36;15.80;99.90
21616;DHT22;10970;48.714;9.584;2022-07-22T04:35:01;15.70;99.90
21616;DHT22;10970;48.714;9.584;2022-07-22T04:37:27;15.70;99.90
21616;DHT22;10970;48.714;9.584;2022-07-22T04:39:52;15.70;99.90
21616;DHT22;10970;48.714;9.584;2022-07-22T04:42:18;15.70;99.90
21616;DHT22;10970;48.714;9.584;2022-07-22T04:44:44;15.80;99.90
21616;DHT22;10970;48.714;9.584;2022-07-22T04:47:10;15.80;99.90
21616;DHT22;10970;48.714;9.584;2022-07-22T04:49:36;15.80;99.90
21616;DHT22;10970;48.714;9.584;2022-07-22T04:52:02;15.80;99.90
21616;DHT22;10970;48.714;9.584;2022-07-22T04:54:28;15.80;99.90
21616;DHT22;10970;48.714;9.584;2022-07-22T04:56:53;15.90;99.90
21616;DHT22;10970;48.714;9.584;2022-07-22T04:59:19;16.00;99.90
21616;DHT22;10970;48.714;9.584;2022-07-22T05:01:45;16.10;99.90
21616;DHT22;10970;48.714;9.584;2022-07-22T05:04:10;16.10;99.90
21616;DHT22;10970;48.714;9.584;2022-07-22T05:06:36;16.10;99.90
21616;DHT22;10970;48.714;9.584;2022-07-22T05:09:02;16.20;99.90
21616;DHT22;10970;48.714;9.584;2022-07-22T05:11:28;16.30;99.90
21616;DHT22;10970;48.714;9.584;2022-07-22T05:13:53;16.30;99.90
21616;DHT22;10970;48.714;9.584;2022-07-22T05:16:19;16.40;99.90
21616;DHT22;10970;48.714;9.584;2022-07-22T05:18:44;16.60;99.90
21616;DHT22;10970;48.714;9.584;2022-07-22T05:21:10;16.70;99.90
21616;DHT22;10970;48.714;9.584;2022-07-22T05:23:36;16.80;99.90
21616;DHT22;10970;48.714;9.584;2022-07-22T05:26:04;17.10;99.90
21616;DHT22;10970;48.714;9.584;2022-07-22T05:28:30;17.20;99.90
21616;DHT22;10970;48.714;9.584;2022-07-22T05:30:55;17.50;99.90
21616;DHT22;10970;48.714;9.584;2022-07-22T05:33:21;17.80;99.90
21616;DHT22;10970;48.714;9.584;2022-07-22T05:35:47;18.00;99.90
21616;DHT22;10970;48.714;9.584;2022-07-22T05:38:13;18.20;99.90
21616;DHT22;10970;48.714;9.584;2022-07-22T05:40:38;18.40;99.90
21616;DHT22;10970;48.714;9.584;2022-07-22T05:43:04;18.60;99.90
21616;DHT22;10970;48.714;9.584;2022-07-22T05:45:30;18.80;99.90
21616;DHT22;10970;48.714;9.584;2022-07-22T05:47:56;18.90;99.90
21616;DHT22;10970;48.714;9.584;2022-07-22T05:50:21;19.10;99.90
21616;DHT22;10970;48.714;9.584;2022-07-22T05:52:47;19.30;99.90
21616;DHT22;10970;48.714;9.584;2022-07-22T05:55:13;19.50;99.90
21616;DHT22;10970;48.714;9.584;2022-07-22T05:57:38;19.50;99.90
21616;DHT22;10970;48.714;9.584;2022-07-22T06:00:05;19.70;99.90
21616;DHT22;10970;48.714;9.584;2022-07-22T06:02:32;19.80;99.90
21616;DHT22;10970;48.714;9.584;2022-07-22T06:04:57;20.00;99.90
21616;DHT22;10970;48.714;9.584;2022-07-22T06:07:26;19.90;99.90
21616;DHT22;10970;48.714;9.584;2022-07-22T06:09:51;20.10;99.90
21616;DHT22;10970;48.714;9.584;2022-07-22T06:12:17;20.10;99.90
21616;DHT22;10970;48.714;9.584;2022-07-22T06:14:43;20.20;99.90
21616;DHT22;10970;48.714;9.584;2022-07-22T06:17:09;20.40;99.90
21616;DHT22;10970;48.714;9.584;2022-07-22T06:19:35;20.50;99.90
21616;DHT22;10970;48.714;9.584;2022-07-22T06:22:01;20.60;99.90
21616;DHT22;10970;48.714;9.584;2022-07-22T06:24:26;20.70;99.90
21616;DHT22;10970;48.714;9.584;2022-07-22T06:26:52;20.70;99.90
21616;DHT22;10970;48.714;9.584;2022-07-22T06:29:17;20.80;99.90
21616;DHT22;10970;48.714;9.584;2022-07-22T06:31:43;20.70;99.90
21616;DHT22;10970;48.714;9.584;2022-07-22T06:34:09;20.80;99.90
21616;DHT22;10970;48.714;9.584;2022-07-22T06:36:35;20.60;99.90
21616;DHT22;10970;48.714;9.584;2022-07-22T06:39:00;20.60;99.90
21616;DHT22;10970;48.714;9.584;2022-07-22T06:41:26;20.70;99.90
21616;DHT22;10970;48.714;9.584;2022-07-22T06:43:53;20.80;99.90
21616;DHT22;10970;48.714;9.584;2022-07-22T06:46:18;20.90;99.90
21616;DHT22;10970;48.714;9.584;2022-07-22T06:48:44;20.90;99.90
21616;DHT22;10970;48.714;9.584;2022-07-22T06:51:10;21.00;99.90
21616;DHT22;10970;48.714;9.584;2022-07-22T06:53:36;21.20;99.90
21616;DHT22;10970;48.714;9.584;2022-07-22T06:56:02;21.30;99.90
21616;DHT22;10970;48.714;9.584;2022-07-22T06:58:28;21.50;99.90
21616;DHT22;10970;48.714;9.584;2022-07-22T07:00:53;21.60;99.90
21616;DHT22;10970;48.714;9.584;2022-07-22T07:03:19;21.70;99.90
21616;DHT22;10970;48.714;9.584;2022-07-22T07:05:45;21.90;99.90
21616;DHT22;10970;48.714;9.584;2022-07-22T07:08:11;22.00;99.90
21616;DHT22;10970;48.714;9.584;2022-07-22T07:10:36;22.00;99.90
21616;DHT22;10970;48.714;9.584;2022-07-22T07:15:28;22.30;99.90
21616;DHT22;10970;48.714;9.584;2022-07-22T07:17:56;22.60;99.90
21616;DHT22;10970;48.714;9.584;2022-07-22T07:20:23;22.80;99.90
21616;DHT22;10970;48.714;9.584;2022-07-22T07:22:49;22.90;99.90
21616;DHT22;10970;48.714;9.584;2022-07-22T07:25:15;23.10;99.90
21616;DHT22;10970;48.714;9.584;2022-07-22T07:27:41;23.20;99.90
21616;DHT22;10970;48.714;9.584;2022-07-22T07:30:07;23.40;99.90
21616;DHT22;10970;48.714;9.584;2022-07-22T07:32:35;23.50;99.90
21616;DHT22;10970;48.714;9.584;2022-07-22T07:35:03;23.50;99.90
21616;DHT22;10970;48.714;9.584;2022-07-22T07:39:59;23.80;99.90
21616;DHT22;10970;48.714;9.584;2022-07-22T07:42:25;24.00;99.90
21616;DHT22;10970;48.714;9.584;2022-07-22T07:44:50;24.40;99.90
21616;DHT22;10970;48.714;9.584;2022-07-22T07:49:47;24.70;99.90
21616;DHT22;10970;48.714;9.584;2022-07-22T07:52:14;25.10;99.90
21616;DHT22;10970;48.714;9.584;2022-07-22T07:54:40;25.40;99.90
21616;DHT22;10970;48.714;9.584;2022-07-22T07:57:09;25.30;99.90
21616;DHT22;10970;48.714;9.584;2022-07-22T07:59:37;25.60;99.90
21616;DHT22;10970;48.714;9.584;2022-07-22T08:28:50;27.50;99.90
21616;DHT22;10970;48.714;9.584;2022-07-22T08:38:34;27.60;99.90
21616;DHT22;10970;48.714;9.584;2022-07-22T08:43:30;28.00;99.90
21616;DHT22;10970;48.714;9.584;2022-07-22T08:45:57;28.30;99.90
21616;DHT22;10970;48.714;9.584;2022-07-22T09:03:24;28.70;99.90
21616;DHT22;10970;48.714;9.584;2022-07-22T09:15:47;28.50;99.90
21616;DHT22;10970;48.714;9.584;2022-07-22T09:23:16;28.70;99.90
21616;DHT22;10970;48.714;9.584;2022-07-22T09:30:38;28.90;99.90
21616;DHT22;10970;48.714;9.584;2022-07-22T09:40:44;29.10;99.90
21616;DHT22;10970;48.714;9.584;2022-07-22T09:43:19;29.10;99.90
21616;DHT22;10970;48.714;9.584;2022-07-22T09:50:47;28.70;99.90
21616;DHT22;10970;48.714;9.584;2022-07-22T09:53:16;28.60;99.90
21616;DHT22;10970;48.714;9.584;2022-07-22T10:00:36;29.10;99.90
21616;DHT22;10970;48.714;9.584;2022-07-22T10:03:05;29.30;99.90
21616;DHT22;10970;48.714;9.584;2022-07-22T10:05:36;29.20;99.90
21616;DHT22;10970;48.714;9.584;2022-07-22T10:08:05;29.50;99.90
21616;DHT22;10970;48.714;9.584;2022-07-22T10:10:32;29.40;99.90
21616;DHT22;10970;48.714;9.584;2022-07-22T10:12:59;29.40;99.90
21616;DHT22;10970;48.714;9.584;2022-07-22T10:15:26;28.90;99.90
21616;DHT22;10970;48.714;9.584;2022-07-22T10:17:55;28.80;99.90
21616;DHT22;10970;48.714;9.584;2022-07-22T10:20:24;29.10;99.90
21616;DHT22;10970;48.714;9.584;2022-07-22T10:23:00;29.20;99.90
21616;DHT22;10970;48.714;9.584;2022-07-22T10:25:28;29.20;99.90
21616;DHT22;10970;48.714;9.584;2022-07-22T10:30:37;28.80;99.90
21616;DHT22;10970;48.714;9.584;2022-07-22T10:33:14;28.80;99.90
21616;DHT22;10970;48.714;9.584;2022-07-22T10:43:31;28.80;99.90
21616;DHT22;10970;48.714;9.584;2022-07-22T11:01:03;28.50;99.90
21616;DHT22;10970;48.714;9.584;2022-07-22T11:16:22;28.70;99.90
21616;DHT22;10970;48.714;9.584;2022-07-22T11:19:01;28.50;99.90
21616;DHT22;10970;48.714;9.584;2022-07-22T11:21:30;28.50;99.90
21616;DHT22;10970;48.714;9.584;2022-07-22T11:24:03;28.70;99.90
21616;DHT22;10970;48.714;9.584;2022-07-22T11:26:44;28.70;99.80
21616;DHT22;10970;48.714;9.584;2022-07-22T11:34:10;28.60;99.90
21616;DHT22;10970;48.714;9.584;2022-07-22T11:36:38;28.60;99.90
21616;DHT22;10970;48.714;9.584;2022-07-22T11:41:32;28.60;99.90
21616;DHT22;10970;48.714;9.584;2022-07-22T11:48:52;28.60;99.90
21616;DHT22;10970;48.714;9.584;2022-07-22T12:01:14;28.80;99.90
21616;DHT22;10970;48.714;9.584;2022-07-22T12:03:45;29.10;99.90
21616;DHT22;10970;48.714;9.584;2022-07-22T12:13:36;29.10;99.90
21616;DHT22;10970;48.714;9.584;2022-07-22T12:16:29;29.20;99.90
21616;DHT22;10970;48.714;9.584;2022-07-22T12:18:58;29.00;99.80
21616;DHT22;10970;48.714;9.584;2022-07-22T12:21:36;28.80;99.10
21616;DHT22;10970;48.714;9.584;2022-07-22T12:24:07;28.80;99.00
21616;DHT22;10970;48.714;9.584;2022-07-22T12:26:49;28.80;99.70
21616;DHT22;10970;48.714;9.584;2022-07-22T12:34:10;29.00;98.60
21616;DHT22;10970;48.714;9.584;2022-07-22T12:46:51;29.30;97.80
21616;DHT22;10970;48.714;9.584;2022-07-22T12:52:04;29.40;99.10
21616;DHT22;10970;48.714;9.584;2022-07-22T12:54:30;29.50;97.80
21616;DHT22;10970;48.714;9.584;2022-07-22T13:01:49;29.70;97.20
21616;DHT22;10970;48.714;9.584;2022-07-22T13:06:41;29.50;97.30
21616;DHT22;10970;48.714;9.584;2022-07-22T13:14:05;29.60;96.80
21616;DHT22;10970;48.714;9.584;2022-07-22T13:16:31;29.80;96.40
21616;DHT22;10970;48.714;9.584;2022-07-22T13:18:57;29.70;95.90
21616;DHT22;10970;48.714;9.584;2022-07-22T13:36:01;29.80;95.90
21616;DHT22;10970;48.714;9.584;2022-07-22T13:43:20;29.90;95.40
21616;DHT22;10970;48.714;9.584;2022-07-22T13:53:04;30.20;97.30
21616;DHT22;10970;48.714;9.584;2022-07-22T13:55:30;30.30;96.80
21616;DHT22;10970;48.714;9.584;2022-07-22T13:57:58;30.20;96.50
21616;DHT22;10970;48.714;9.584;2022-07-22T14:02:50;30.00;96.60
21616;DHT22;10970;48.714;9.584;2022-07-22T14:22:25;29.80;96.70
21616;DHT22;10970;48.714;9.584;2022-07-22T14:32:09;30.00;95.60
21616;DHT22;10970;48.714;9.584;2022-07-22T14:34:35;30.20;95.30
21616;DHT22;10970;48.714;9.584;2022-07-22T14:39:26;30.40;95.00
21616;DHT22;10970;48.714;9.584;2022-07-22T14:41:52;30.50;95.30
21616;DHT22;10970;48.714;9.584;2022-07-22T14:51:36;30.30;94.80
21616;DHT22;10970;48.714;9.584;2022-07-22T14:54:02;30.20;96.20
21616;DHT22;10970;48.714;9.584;2022-07-22T14:56:28;30.50;96.30
21616;DHT22;10970;48.714;9.584;2022-07-22T15:03:46;30.60;95.50
21616;DHT22;10970;48.714;9.584;2022-07-22T15:11:04;30.70;94.90
21616;DHT22;10970;48.714;9.584;2022-07-22T15:15:57;30.60;94.80
21616;DHT22;10970;48.714;9.584;2022-07-22T15:33:01;30.80;94.10
21616;DHT22;10970;48.714;9.584;2022-07-22T15:35:26;31.00;94.40
21616;DHT22;10970;48.714;9.584;2022-07-22T15:40:18;31.20;94.30
21616;DHT22;10970;48.714;9.584;2022-07-22T15:45:12;31.00;94.40
21616;DHT22;10970;48.714;9.584;2022-07-22T15:52:30;31.10;94.40
21616;DHT22;10970;48.714;9.584;2022-07-22T15:54:56;31.10;94.90
21616;DHT22;10970;48.714;9.584;2022-07-22T15:57:21;31.20;95.40
21616;DHT22;10970;48.714;9.584;2022-07-22T16:00:06;31.30;94.80
21616;DHT22;10970;48.714;9.584;2022-07-22T16:02:32;31.30;93.90
21616;DHT22;10970;48.714;9.584;2022-07-22T16:04:58;31.30;94.40
21616;DHT22;10970;48.714;9.584;2022-07-22T16:07:24;31.20;95.70
21616;DHT22;10970;48.714;9.584;2022-07-22T16:09:50;31.30;94.50
21616;DHT22;10970;48.714;9.584;2022-07-22T16:12:16;31.40;94.30
21616;DHT22;10970;48.714;9.584;2022-07-22T16:14:41;31.40;94.40
21616;DHT22;10970;48.714;9.584;2022-07-22T16:17:07;31.40;94.70
21616;DHT22;10970;48.714;9.584;2022-07-22T16:19:33;31.50;94.10
21616;DHT22;10970;48.714;9.584;2022-07-22T16:21:58;31.50;94.40
21616;DHT22;10970;48.714;9.584;2022-07-22T16:24:24;31.60;95.20
21616;DHT22;10970;48.714;9.584;2022-07-22T16:26:50;31.50;95.00
21616;DHT22;10970;48.714;9.584;2022-07-22T16:29:16;31.60;94.70
21616;DHT22;10970;48.714;9.584;2022-07-22T16:31:41;31.70;94.60
21616;DHT22;10970;48.714;9.584;2022-07-22T16:34:07;32.00;94.60
21616;DHT22;10970;48.714;9.584;2022-07-22T16:36:33;31.80;94.30
21616;DHT22;10970;48.714;9.584;2022-07-22T16:38:58;31.40;95.80
21616;DHT22;10970;48.714;9.584;2022-07-22T16:41:26;31.00;95.50
21616;DHT22;10970;48.714;9.584;2022-07-22T16:43:51;30.90;95.50
21616;DHT22;10970;48.714;9.584;2022-07-22T16:46:17;30.90;96.00
21616;DHT22;10970;48.714;9.584;2022-07-22T16:48:43;31.00;96.20
21616;DHT22;10970;48.714;9.584;2022-07-22T16:51:08;31.00;95.00
21616;DHT22;10970;48.714;9.584;2022-07-22T16:53:34;31.20;94.90
21616;DHT22;10970;48.714;9.584;2022-07-22T16:56:02;31.40;95.10
21616;DHT22;10970;48.714;9.584;2022-07-22T16:58:28;31.40;94.90
21616;DHT22;10970;48.714;9.584;2022-07-22T17:00:54;31.60;95.20
21616;DHT22;10970;48.714;9.584;2022-07-22T17:03:20;31.80;95.00
21616;DHT22;10970;48.714;9.584;2022-07-22T17:05:45;31.90;94.80
21616;DHT22;10970;48.714;9.584;2022-07-22T17:08:11;31.90;94.70
21616;DHT22;10970;48.714;9.584;2022-07-22T17:10:37;31.70;94.50
21616;DHT22;10970;48.714;9.584;2022-07-22T17:13:02;31.60;94.40
21616;DHT22;10970;48.714;9.584;2022-07-22T17:15:28;31.30;94.80
21616;DHT22;10970;48.714;9.584;2022-07-22T17:17:54;31.10;95.70
21616;DHT22;10970;48.714;9.584;2022-07-22T17:20:20;31.00;95.50
21616;DHT22;10970;48.714;9.584;2022-07-22T17:22:45;30.90;95.90
21616;DHT22;10970;48.714;9.584;2022-07-22T17:25:11;30.80;95.60
21616;DHT22;10970;48.714;9.584;2022-07-22T17:27:37;30.70;96.20
21616;DHT22;10970;48.714;9.584;2022-07-22T17:30:03;30.60;96.70
21616;DHT22;10970;48.714;9.584;2022-07-22T17:32:30;30.40;96.00
21616;DHT22;10970;48.714;9.584;2022-07-22T17:34:55;30.20;96.40
21616;DHT22;10970;48.714;9.584;2022-07-22T17:37:21;30.00;96.80
21616;DHT22;10970;48.714;9.584;2022-07-22T17:39:47;29.80;97.30
21616;DHT22;10970;48.714;9.584;2022-07-22T17:42:12;29.80;98.10
21616;DHT22;10970;48.714;9.584;2022-07-22T17:51:56;29.60;99.40
21616;DHT22;10970;48.714;9.584;2022-07-22T17:54:22;29.60;99.80
21616;DHT22;10970;48.714;9.584;2022-07-22T17:56:48;29.40;99.60
21616;DHT22;10970;48.714;9.584;2022-07-22T17:59:13;29.40;99.10
21616;DHT22;10970;48.714;9.584;2022-07-22T18:01:39;29.30;99.10
21616;DHT22;10970;48.714;9.584;2022-07-22T18:04:05;29.20;99.90
21616;DHT22;10970;48.714;9.584;2022-07-22T18:06:32;29.00;99.90
21616;DHT22;10970;48.714;9.584;2022-07-22T18:08:58;29.00;99.90
21616;DHT22;10970;48.714;9.584;2022-07-22T18:16:16;28.80;99.90
21616;DHT22;10970;48.714;9.584;2022-07-22T18:18:42;28.60;99.90
21616;DHT22;10970;48.714;9.584;2022-07-22T18:23:35;28.40;99.90
21616;DHT22;10970;48.714;9.584;2022-07-22T18:26:02;28.30;99.90
21616;DHT22;10970;48.714;9.584;2022-07-22T18:30:55;28.10;99.90
21616;DHT22;10970;48.714;9.584;2022-07-22T18:33:20;28.00;99.90
21616;DHT22;10970;48.714;9.584;2022-07-22T18:35:46;27.90;99.90
21616;DHT22;10970;48.714;9.584;2022-07-22T18:45:30;27.90;99.90
21616;DHT22;10970;48.714;9.584;2022-07-22T18:47:55;27.90;99.90
21616;DHT22;10970;48.714;9.584;2022-07-22T18:52:50;27.70;99.90
21616;DHT22;10970;48.714;9.584;2022-07-22T19:00:11;27.70;99.90
21616;DHT22;10970;48.714;9.584;2022-07-22T19:02:36;27.70;99.90
21616;DHT22;10970;48.714;9.584;2022-07-22T19:05:02;27.60;99.90
21616;DHT22;10970;48.714;9.584;2022-07-22T19:07:28;27.50;99.90
21616;DHT22;10970;48.714;9.584;2022-07-22T19:09:54;27.30;99.90
21616;DHT22;10970;48.714;9.584;2022-07-22T19:12:21;27.20;99.90
21616;DHT22;10970;48.714;9.584;2022-07-22T19:17:13;27.10;99.90
21616;DHT22;10970;48.714;9.584;2022-07-22T19:22:05;26.80;99.90
21616;DHT22;10970;48.714;9.584;2022-07-22T19:31:51;26.70;99.90
21616;DHT22;10970;48.714;9.584;2022-07-22T19:36:43;26.70;99.90
21616;DHT22;10970;48.714;9.584;2022-07-22T19:39:09;26.70;99.90
21616;DHT22;10970;48.714;9.584;2022-07-22T20:18:09;25.70;99.90
21616;DHT22;10970;48.714;9.584;2022-07-22T20:20:35;25.60;99.90
21616;DHT22;10970;48.714;9.584;2022-07-22T20:25:26;25.40;99.90
21616;DHT22;10970;48.714;9.584;2022-07-22T20:42:29;25.30;99.90
21616;DHT22;10970;48.714;9.584;2022-07-22T20:44:54;25.30;99.90
21616;DHT22;10970;48.714;9.584;2022-07-22T20:47:20;25.30;99.90
21616;DHT22;10970;48.714;9.584;2022-07-22T20:49:45;25.30;99.90
21616;DHT22;10970;48.714;9.584;2022-07-22T21:06:47;24.90;99.90
21616;DHT22;10970;48.714;9.584;2022-07-22T21:09:13;24.80;99.90
21616;DHT22;10970;48.714;9.584;2022-07-22T21:11:39;24.80;99.90
21616;DHT22;10970;48.714;9.584;2022-07-22T21:18:56;24.60;99.90
21616;DHT22;10970;48.714;9.584;2022-07-22T21:23:48;24.60;99.90
21616;DHT22;10970;48.714;9.584;2022-07-22T21:26:14;24.80;99.90
21616;DHT22;10970;48.714;9.584;2022-07-22T21:28:39;24.90;99.90
21616;DHT22;10970;48.714;9.584;2022-07-22T21:43:16;24.50;99.90
21616;DHT22;10970;48.714;9.584;2022-07-22T22:00:28;23.60;99.90
21616;DHT22;10970;48.714;9.584;2022-07-22T22:07:47;23.50;99.90
21616;DHT22;10970;48.714;9.584;2022-07-22T22:10:13;23.60;99.90
21616;DHT22;10970;48.714;9.584;2022-07-22T22:15:05;23.70;99.90
21616;DHT22;10970;48.714;9.584;2022-07-22T22:19:57;23.80;99.90
21616;DHT22;10970;48.714;9.584;2022-07-22T22:24:49;23.60;99.90
21616;DHT22;10970;48.714;9.584;2022-07-22T22:27:15;23.70;99.90
21616;DHT22;10970;48.714;9.584;2022-07-22T22:29:40;23.60;99.90
21616;DHT22;10970;48.714;9.584;2022-07-22T22:32:06;23.60;99.90
21616;DHT22;10970;48.714;9.584;2022-07-22T22:34:32;23.50;99.90
21616;DHT22;10970;48.714;9.584;2022-07-22T22:36:58;23.50;99.90
21616;DHT22;10970;48.714;9.584;2022-07-22T22:39:23;23.60;99.90
21616;DHT22;10970;48.714;9.584;2022-07-22T22:41:49;23.50;99.90
21616;DHT22;10970;48.714;9.584;2022-07-22T22:44:16;23.50;99.90
21616;DHT22;10970;48.714;9.584;2022-07-22T22:46:41;23.50;99.90
21616;DHT22;10970;48.714;9.584;2022-07-22T22:49:07;23.50;99.90
21616;DHT22;10970;48.714;9.584;2022-07-22T22:51:33;23.40;99.90
21616;DHT22;10970;48.714;9.584;2022-07-22T22:53:58;23.30;99.90
21616;DHT22;10970;48.714;9.584;2022-07-22T22:56:24;23.20;99.90
21616;DHT22;10970;48.714;9.584;2022-07-22T22:58:50;23.20;99.90
21616;DHT22;10970;48.714;9.584;2022-07-22T23:01:15;23.10;99.90
21616;DHT22;10970;48.714;9.584;2022-07-22T23:03:41;23.10;99.90
21616;DHT22;10970;48.714;9.584;2022-07-22T23:23:24;23.00;99.90
21616;DHT22;10970;48.714;9.584;2022-07-22T23:25:50;23.10;99.90
21616;DHT22;10970;48.714;9.584;2022-07-22T23:40:29;22.80;99.90
21616;DHT22;10970;48.714;9.584;2022-07-22T23:47:47;22.80;99.90
21616;DHT22;10970;48.714;9.584;2022-07-22T23:57:32;22.40;99.90
